DLH64C UAAA-UACC
Flight info
| Callsign | DLH64C |
|---|---|
| Flight time | 1h 22m |
| Altitude | 40000 |
| Route | ETEDA1J ETEDA W333 BANOS BANOS1G |
| Aircraft | A346/H-SDE2E3FGHIJ3J4J5M1P2RWXYZ/LB1D1 |
Departure
| Time | 2026-05-09 11:37 |
|---|---|
| Airport | Almaty International Airport (UAAA) |
Arrival
| Time | 2026-05-09 12:59 |
|---|---|
| Airport | Nursultan Nazarbayev International Airport (UACC) |
| Time | Latitude | Longitude | Altitude | Speed | Heading |
|---|---|---|---|---|---|
| 2026-05-09 11:02 | 43.35039 | 77.01273 | 2237 ft | 0 kts | 245° |
| 2026-05-09 11:28 | 43.35044 | 77.01289 | 2235 ft | 4 kts | 243° |
| 2026-05-09 11:28 | 43.35057 | 77.01321 | 2230 ft | 4 kts | 242° |
| 2026-05-09 11:29 | 43.35068 | 77.01348 | 2235 ft | 4 kts | 231° |
| 2026-05-09 11:29 | 43.35083 | 77.01365 | 2230 ft | 4 kts | 197° |
| 2026-05-09 11:29 | 43.35101 | 77.01365 | 2233 ft | 4 kts | 160° |
| 2026-05-09 11:29 | 43.35125 | 77.01350 | 2230 ft | 4 kts | 153° |
| 2026-05-09 11:30 | 43.35135 | 77.01343 | 2234 ft | 0 kts | 155° |
| 2026-05-09 11:33 | 43.35125 | 77.01349 | 2230 ft | 4 kts | 155° |
| 2026-05-09 11:34 | 43.35087 | 77.01374 | 2230 ft | 8 kts | 155° |
| 2026-05-09 11:34 | 43.35017 | 77.01417 | 2232 ft | 13 kts | 155° |
| 2026-05-09 11:34 | 43.34927 | 77.01469 | 2233 ft | 15 kts | 157° |
| 2026-05-09 11:34 | 43.34842 | 77.01519 | 2235 ft | 9 kts | 152° |
| 2026-05-09 11:35 | 43.34819 | 77.01596 | 2231 ft | 11 kts | 99° |
| 2026-05-09 11:35 | 43.34813 | 77.01671 | 2230 ft | 13 kts | 95° |
| 2026-05-09 11:35 | 43.34807 | 77.01803 | 2237 ft | 15 kts | 94° |
| 2026-05-09 11:35 | 43.34799 | 77.01959 | 2234 ft | 18 kts | 94° |
| 2026-05-09 11:36 | 43.34790 | 77.02139 | 2237 ft | 20 kts | 94° |
| 2026-05-09 11:36 | 43.34781 | 77.02336 | 2237 ft | 21 kts | 94° |
| 2026-05-09 11:36 | 43.34772 | 77.02522 | 2230 ft | 14 kts | 94° |
| 2026-05-09 11:36 | 43.34788 | 77.02622 | 2230 ft | 13 kts | 55° |
| 2026-05-09 11:37 | 43.34954 | 77.02955 | 2232 ft | 78 kts | 56° |
| 2026-05-09 11:37 | 43.35391 | 77.03836 | 2230 ft | 143 kts | 56° |
| 2026-05-09 11:37 | 43.36059 | 77.05179 | 2267 ft | 192 kts | 54° |
| 2026-05-09 11:37 | 43.36837 | 77.06743 | 2859 ft | 200 kts | 56° |
| 2026-05-09 11:38 | 43.37625 | 77.08323 | 3642 ft | 198 kts | 56° |
| 2026-05-09 11:38 | 43.38401 | 77.09879 | 4236 ft | 200 kts | 56° |
| 2026-05-09 11:38 | 43.39212 | 77.11513 | 4599 ft | 213 kts | 56° |
| 2026-05-09 11:38 | 43.40079 | 77.13264 | 4923 ft | 229 kts | 56° |
| 2026-05-09 11:39 | 43.41008 | 77.15142 | 5269 ft | 246 kts | 53° |
| 2026-05-09 11:39 | 43.42365 | 77.16703 | 5566 ft | 267 kts | 22° |
| 2026-05-09 11:39 | 43.44230 | 77.17094 | 6026 ft | 280 kts | 349° |
| 2026-05-09 11:40 | 43.47711 | 77.14878 | 7594 ft | 281 kts | 329° |
| 2026-05-09 11:40 | 43.49480 | 77.13568 | 8349 ft | 285 kts | 329° |
| 2026-05-09 11:40 | 43.51259 | 77.12291 | 9080 ft | 290 kts | 329° |
| 2026-05-09 11:40 | 43.53061 | 77.11036 | 9986 ft | 290 kts | 329° |
| 2026-05-09 11:41 | 43.54882 | 77.09766 | 10677 ft | 300 kts | 329° |
| 2026-05-09 11:41 | 43.56794 | 77.08422 | 11145 ft | 317 kts | 329° |
| 2026-05-09 11:41 | 43.58817 | 77.06996 | 11559 ft | 336 kts | 329° |
| 2026-05-09 11:41 | 43.60951 | 77.05491 | 11956 ft | 354 kts | 329° |
| 2026-05-09 11:42 | 43.63192 | 77.03911 | 12454 ft | 369 kts | 329° |
| 2026-05-09 11:42 | 43.65504 | 77.02287 | 13235 ft | 375 kts | 329° |
| 2026-05-09 11:42 | 43.67817 | 77.00662 | 14062 ft | 378 kts | 329° |
| 2026-05-09 11:42 | 43.70222 | 76.98969 | 14908 ft | 381 kts | 329° |
| 2026-05-09 11:43 | 43.72592 | 76.97305 | 15760 ft | 384 kts | 329° |
| 2026-05-09 11:43 | 43.74948 | 76.95648 | 16602 ft | 386 kts | 329° |
| 2026-05-09 11:43 | 43.77392 | 76.93925 | 17450 ft | 389 kts | 329° |
| 2026-05-09 11:43 | 43.79779 | 76.92237 | 18256 ft | 392 kts | 329° |
| 2026-05-09 11:44 | 43.82209 | 76.90517 | 18983 ft | 395 kts | 329° |
| 2026-05-09 11:44 | 43.84665 | 76.88777 | 19675 ft | 398 kts | 329° |
| 2026-05-09 11:44 | 43.87144 | 76.87018 | 20382 ft | 402 kts | 329° |
| 2026-05-09 11:44 | 43.89648 | 76.85239 | 21063 ft | 406 kts | 329° |
| 2026-05-09 11:45 | 43.92177 | 76.83441 | 21719 ft | 412 kts | 329° |
| 2026-05-09 11:45 | 43.94742 | 76.81617 | 22376 ft | 416 kts | 329° |
| 2026-05-09 11:45 | 43.97349 | 76.79761 | 23049 ft | 420 kts | 329° |
| 2026-05-09 11:45 | 43.99960 | 76.77900 | 23668 ft | 424 kts | 329° |
| 2026-05-09 11:46 | 44.02608 | 76.76012 | 24237 ft | 427 kts | 329° |
| 2026-05-09 11:46 | 44.05263 | 76.74119 | 24869 ft | 429 kts | 329° |
| 2026-05-09 11:46 | 44.07923 | 76.72220 | 25477 ft | 431 kts | 329° |
| 2026-05-09 11:46 | 44.10596 | 76.70307 | 26090 ft | 433 kts | 328° |
| 2026-05-09 11:47 | 44.13283 | 76.68382 | 26687 ft | 435 kts | 328° |
| 2026-05-09 11:47 | 44.15978 | 76.66449 | 27291 ft | 437 kts | 328° |
| 2026-05-09 11:47 | 44.18686 | 76.64504 | 27887 ft | 439 kts | 328° |
| 2026-05-09 11:47 | 44.21405 | 76.62549 | 28445 ft | 441 kts | 328° |
| 2026-05-09 11:48 | 44.24148 | 76.60577 | 28950 ft | 445 kts | 328° |
| 2026-05-09 11:48 | 44.26907 | 76.58590 | 29481 ft | 448 kts | 327° |
| 2026-05-09 11:48 | 44.29684 | 76.56587 | 30053 ft | 449 kts | 327° |
| 2026-05-09 11:48 | 44.32452 | 76.54602 | 30749 ft | 446 kts | 328° |
| 2026-05-09 11:49 | 44.35258 | 76.52772 | 31484 ft | 444 kts | 330° |
| 2026-05-09 11:49 | 44.38088 | 76.51087 | 32195 ft | 441 kts | 331° |
| 2026-05-09 11:49 | 44.40907 | 76.49442 | 32865 ft | 438 kts | 330° |
| 2026-05-09 11:49 | 44.43712 | 76.47810 | 33511 ft | 435 kts | 330° |
| 2026-05-09 11:50 | 44.46501 | 76.46185 | 34117 ft | 433 kts | 330° |
| 2026-05-09 11:50 | 44.49271 | 76.44565 | 34663 ft | 431 kts | 330° |
| 2026-05-09 11:50 | 44.52033 | 76.42945 | 35145 ft | 430 kts | 330° |
| 2026-05-09 11:50 | 44.54792 | 76.41325 | 35592 ft | 429 kts | 330° |
| 2026-05-09 11:51 | 44.57507 | 76.39729 | 36026 ft | 429 kts | 330° |
| 2026-05-09 11:51 | 44.60301 | 76.38086 | 36421 ft | 430 kts | 330° |
| 2026-05-09 11:51 | 44.63022 | 76.36484 | 36791 ft | 430 kts | 330° |
| 2026-05-09 11:51 | 44.65781 | 76.34859 | 37169 ft | 430 kts | 330° |
| 2026-05-09 11:52 | 44.68543 | 76.33231 | 37559 ft | 429 kts | 330° |
| 2026-05-09 11:52 | 44.71295 | 76.31608 | 37930 ft | 429 kts | 330° |
| 2026-05-09 11:52 | 44.74048 | 76.29981 | 38264 ft | 429 kts | 330° |
| 2026-05-09 11:52 | 44.76802 | 76.28352 | 38549 ft | 430 kts | 330° |
| 2026-05-09 11:53 | 44.79585 | 76.26701 | 38735 ft | 432 kts | 330° |
| 2026-05-09 11:53 | 44.82363 | 76.25053 | 38909 ft | 433 kts | 330° |
| 2026-05-09 11:53 | 44.85149 | 76.23399 | 39089 ft | 435 kts | 330° |
| 2026-05-09 11:53 | 44.87937 | 76.21742 | 39262 ft | 436 kts | 330° |
| 2026-05-09 11:54 | 44.90741 | 76.20075 | 39430 ft | 437 kts | 330° |
| 2026-05-09 11:54 | 44.93545 | 76.18407 | 39615 ft | 439 kts | 330° |
| 2026-05-09 11:54 | 44.96366 | 76.16726 | 39768 ft | 440 kts | 331° |
| 2026-05-09 11:55 | 45.02032 | 76.13347 | 39810 ft | 442 kts | 331° |
| 2026-05-09 11:56 | 45.19038 | 76.03161 | 39818 ft | 442 kts | 330° |
| 2026-05-09 11:57 | 45.24709 | 75.99748 | 39809 ft | 442 kts | 330° |
| 2026-05-09 11:57 | 45.30376 | 75.96330 | 39826 ft | 442 kts | 330° |
| 2026-05-09 11:58 | 45.36047 | 75.92908 | 39807 ft | 443 kts | 330° |
| 2026-05-09 11:58 | 45.41724 | 75.89465 | 39804 ft | 444 kts | 330° |
| 2026-05-09 11:59 | 45.47407 | 75.86013 | 39810 ft | 444 kts | 330° |
| 2026-05-09 11:59 | 45.53092 | 75.82554 | 39811 ft | 445 kts | 330° |
| 2026-05-09 12:00 | 45.58803 | 75.79071 | 39811 ft | 445 kts | 330° |
| 2026-05-09 12:00 | 45.64461 | 75.75613 | 39806 ft | 445 kts | 330° |
| 2026-05-09 12:01 | 45.70198 | 75.72098 | 39823 ft | 446 kts | 330° |
| 2026-05-09 12:01 | 45.75920 | 75.68585 | 39810 ft | 447 kts | 330° |
| 2026-05-09 12:02 | 45.81598 | 75.65095 | 39808 ft | 447 kts | 330° |
| 2026-05-09 12:02 | 45.87313 | 75.61574 | 39822 ft | 447 kts | 330° |
| 2026-05-09 12:03 | 45.93030 | 75.58042 | 39815 ft | 448 kts | 330° |
| 2026-05-09 12:03 | 45.98749 | 75.54503 | 39814 ft | 447 kts | 330° |
| 2026-05-09 12:04 | 46.04472 | 75.50952 | 39813 ft | 447 kts | 330° |
| 2026-05-09 12:04 | 46.10199 | 75.47391 | 39821 ft | 449 kts | 329° |
| 2026-05-09 12:05 | 46.15935 | 75.43816 | 39818 ft | 449 kts | 329° |
| 2026-05-09 12:05 | 46.21668 | 75.40234 | 39820 ft | 449 kts | 329° |
| 2026-05-09 12:06 | 46.27407 | 75.36663 | 39824 ft | 449 kts | 330° |
| 2026-05-09 12:06 | 46.33147 | 75.33097 | 39829 ft | 449 kts | 330° |
| 2026-05-09 12:07 | 46.38888 | 75.29518 | 39830 ft | 449 kts | 329° |
| 2026-05-09 12:07 | 46.44622 | 75.25935 | 39842 ft | 449 kts | 329° |
| 2026-05-09 12:08 | 46.50373 | 75.22331 | 39831 ft | 451 kts | 330° |
| 2026-05-09 12:08 | 46.56129 | 75.18717 | 39830 ft | 451 kts | 329° |
| 2026-05-09 12:09 | 46.61885 | 75.15096 | 39838 ft | 451 kts | 329° |
| 2026-05-09 12:09 | 46.67654 | 75.11457 | 39847 ft | 452 kts | 329° |
| 2026-05-09 12:10 | 46.79210 | 75.04143 | 39852 ft | 453 kts | 329° |
| 2026-05-09 12:11 | 46.84991 | 75.00471 | 39864 ft | 453 kts | 329° |
| 2026-05-09 12:11 | 46.90874 | 74.96929 | 39832 ft | 456 kts | 332° |
| 2026-05-09 12:12 | 46.96830 | 74.93650 | 39831 ft | 457 kts | 332° |
| 2026-05-09 12:12 | 47.02791 | 74.90377 | 39838 ft | 457 kts | 332° |
| 2026-05-09 12:13 | 47.08787 | 74.87068 | 39822 ft | 458 kts | 332° |
| 2026-05-09 12:13 | 47.14712 | 74.83787 | 39820 ft | 458 kts | 332° |
| 2026-05-09 12:14 | 47.20671 | 74.80477 | 39822 ft | 458 kts | 332° |
| 2026-05-09 12:14 | 47.26638 | 74.77153 | 39825 ft | 459 kts | 332° |
| 2026-05-09 12:15 | 47.32616 | 74.73818 | 39814 ft | 459 kts | 332° |
| 2026-05-09 12:15 | 47.38588 | 74.70477 | 39811 ft | 459 kts | 332° |
| 2026-05-09 12:16 | 47.44564 | 74.67124 | 39825 ft | 460 kts | 332° |
| 2026-05-09 12:16 | 47.50548 | 74.63760 | 39816 ft | 460 kts | 332° |
| 2026-05-09 12:17 | 47.56536 | 74.60394 | 39815 ft | 460 kts | 332° |
| 2026-05-09 12:17 | 47.62524 | 74.57040 | 39828 ft | 460 kts | 332° |
| 2026-05-09 12:18 | 47.68516 | 74.53676 | 39814 ft | 460 kts | 332° |
| 2026-05-09 12:18 | 47.74513 | 74.50302 | 39812 ft | 460 kts | 332° |
| 2026-05-09 12:19 | 47.80498 | 74.46924 | 39815 ft | 461 kts | 332° |
| 2026-05-09 12:19 | 47.86489 | 74.43534 | 39815 ft | 461 kts | 332° |
| 2026-05-09 12:20 | 47.92498 | 74.40126 | 39818 ft | 461 kts | 332° |
| 2026-05-09 12:20 | 47.98507 | 74.36709 | 39821 ft | 461 kts | 332° |
| 2026-05-09 12:21 | 48.04522 | 74.33280 | 39833 ft | 462 kts | 332° |
| 2026-05-09 12:21 | 48.10528 | 74.29847 | 39827 ft | 462 kts | 332° |
| 2026-05-09 12:22 | 48.15518 | 74.26997 | 39830 ft | 462 kts | 332° |
| 2026-05-09 12:22 | 48.21534 | 74.23596 | 39830 ft | 462 kts | 332° |
| 2026-05-09 12:23 | 48.27553 | 74.20187 | 39842 ft | 462 kts | 332° |
| 2026-05-09 12:23 | 48.33565 | 74.16769 | 39838 ft | 462 kts | 332° |
| 2026-05-09 12:24 | 48.39583 | 74.13339 | 39842 ft | 462 kts | 332° |
| 2026-05-09 12:24 | 48.45599 | 74.09901 | 39856 ft | 463 kts | 332° |
| 2026-05-09 12:25 | 48.51629 | 74.06445 | 39846 ft | 464 kts | 332° |
| 2026-05-09 12:25 | 48.57658 | 74.02981 | 39844 ft | 464 kts | 332° |
| 2026-05-09 12:26 | 48.63706 | 73.99497 | 39872 ft | 464 kts | 332° |
| 2026-05-09 12:26 | 48.69753 | 73.96005 | 39843 ft | 466 kts | 332° |
| 2026-05-09 12:27 | 48.75769 | 73.92522 | 39835 ft | 466 kts | 332° |
| 2026-05-09 12:27 | 48.81824 | 73.89008 | 39840 ft | 466 kts | 332° |
| 2026-05-09 12:28 | 48.87881 | 73.85483 | 39849 ft | 467 kts | 332° |
| 2026-05-09 12:28 | 48.93950 | 73.81941 | 39840 ft | 467 kts | 332° |
| 2026-05-09 12:29 | 49.00000 | 73.78400 | 39838 ft | 467 kts | 332° |
| 2026-05-09 12:29 | 49.06096 | 73.74810 | 39854 ft | 468 kts | 332° |
| 2026-05-09 12:30 | 49.12171 | 73.71221 | 39834 ft | 468 kts | 332° |
| 2026-05-09 12:30 | 49.21287 | 73.65818 | 39825 ft | 468 kts | 332° |
| 2026-05-09 12:31 | 49.30401 | 73.60396 | 39826 ft | 469 kts | 332° |
| 2026-05-09 12:32 | 49.36477 | 73.56769 | 39819 ft | 469 kts | 332° |
| 2026-05-09 12:32 | 49.42554 | 73.53134 | 39786 ft | 467 kts | 332° |
| 2026-05-09 12:32 | 49.45527 | 73.51353 | 39339 ft | 467 kts | 331° |
| 2026-05-09 12:33 | 49.48620 | 73.49495 | 38516 ft | 474 kts | 331° |
| 2026-05-09 12:33 | 49.51676 | 73.47657 | 37580 ft | 480 kts | 330° |
| 2026-05-09 12:33 | 49.54787 | 73.45792 | 36892 ft | 478 kts | 330° |
| 2026-05-09 12:33 | 49.57874 | 73.43938 | 36324 ft | 475 kts | 329° |
| 2026-05-09 12:34 | 49.60915 | 73.42034 | 35732 ft | 468 kts | 326° |
| 2026-05-09 12:34 | 49.63839 | 73.39909 | 35162 ft | 460 kts | 322° |
| 2026-05-09 12:34 | 49.66629 | 73.37562 | 34579 ft | 452 kts | 319° |
| 2026-05-09 12:34 | 49.69282 | 73.35016 | 34012 ft | 445 kts | 315° |
| 2026-05-09 12:35 | 49.71788 | 73.32291 | 33346 ft | 437 kts | 311° |
| 2026-05-09 12:35 | 49.74152 | 73.29389 | 32585 ft | 432 kts | 309° |
| 2026-05-09 12:35 | 49.76396 | 73.26312 | 31843 ft | 430 kts | 307° |
| 2026-05-09 12:35 | 49.78586 | 73.23173 | 31205 ft | 428 kts | 307° |
| 2026-05-09 12:36 | 49.80757 | 73.20035 | 30586 ft | 427 kts | 307° |
| 2026-05-09 12:36 | 49.82925 | 73.16896 | 30018 ft | 426 kts | 307° |
| 2026-05-09 12:36 | 49.85095 | 73.13750 | 29182 ft | 428 kts | 307° |
| 2026-05-09 12:36 | 49.87275 | 73.10591 | 28567 ft | 427 kts | 307° |
| 2026-05-09 12:37 | 49.89439 | 73.07474 | 28099 ft | 421 kts | 306° |
| 2026-05-09 12:37 | 49.91567 | 73.04394 | 27643 ft | 415 kts | 306° |
| 2026-05-09 12:37 | 49.93663 | 73.01352 | 27243 ft | 409 kts | 306° |
| 2026-05-09 12:37 | 49.95736 | 72.98332 | 26858 ft | 407 kts | 306° |
| 2026-05-09 12:38 | 49.97794 | 72.95330 | 26439 ft | 404 kts | 306° |
| 2026-05-09 12:38 | 49.99832 | 72.92354 | 26007 ft | 401 kts | 306° |
| 2026-05-09 12:38 | 50.01865 | 72.89383 | 25572 ft | 398 kts | 306° |
| 2026-05-09 12:38 | 50.03876 | 72.86443 | 25129 ft | 395 kts | 306° |
| 2026-05-09 12:39 | 50.05874 | 72.83516 | 24656 ft | 394 kts | 306° |
| 2026-05-09 12:39 | 50.07862 | 72.80596 | 24201 ft | 392 kts | 306° |
| 2026-05-09 12:39 | 50.09846 | 72.77683 | 23737 ft | 391 kts | 306° |
| 2026-05-09 12:39 | 50.11823 | 72.74777 | 23248 ft | 389 kts | 307° |
| 2026-05-09 12:40 | 50.13785 | 72.71890 | 22754 ft | 387 kts | 307° |
| 2026-05-09 12:40 | 50.15708 | 72.69061 | 22325 ft | 383 kts | 307° |
| 2026-05-09 12:40 | 50.17772 | 72.66309 | 21882 ft | 386 kts | 312° |
| 2026-05-09 12:40 | 50.19933 | 72.63911 | 21462 ft | 388 kts | 317° |
| 2026-05-09 12:41 | 50.22267 | 72.61779 | 21032 ft | 390 kts | 322° |
| 2026-05-09 12:41 | 50.24682 | 72.59834 | 20630 ft | 389 kts | 324° |
| 2026-05-09 12:41 | 50.27091 | 72.57940 | 20218 ft | 386 kts | 324° |
| 2026-05-09 12:41 | 50.29484 | 72.56062 | 19816 ft | 384 kts | 324° |
| 2026-05-09 12:42 | 50.31863 | 72.54191 | 19417 ft | 381 kts | 324° |
| 2026-05-09 12:42 | 50.34224 | 72.52326 | 19004 ft | 379 kts | 325° |
| 2026-05-09 12:42 | 50.36577 | 72.50464 | 18589 ft | 377 kts | 325° |
| 2026-05-09 12:42 | 50.38911 | 72.48612 | 18184 ft | 376 kts | 325° |
| 2026-05-09 12:43 | 50.41242 | 72.46761 | 17739 ft | 374 kts | 326° |
| 2026-05-09 12:43 | 50.43558 | 72.44922 | 17296 ft | 372 kts | 326° |
| 2026-05-09 12:43 | 50.45863 | 72.43089 | 16870 ft | 370 kts | 326° |
| 2026-05-09 12:43 | 50.48155 | 72.41265 | 16457 ft | 368 kts | 326° |
| 2026-05-09 12:44 | 50.50428 | 72.39453 | 16050 ft | 366 kts | 326° |
| 2026-05-09 12:44 | 50.52689 | 72.37646 | 15656 ft | 363 kts | 326° |
| 2026-05-09 12:44 | 50.54940 | 72.35846 | 15250 ft | 361 kts | 326° |
| 2026-05-09 12:44 | 50.57173 | 72.34057 | 14847 ft | 360 kts | 326° |
| 2026-05-09 12:45 | 50.59401 | 72.32271 | 14443 ft | 358 kts | 326° |
| 2026-05-09 12:45 | 50.61617 | 72.30491 | 14031 ft | 357 kts | 326° |
| 2026-05-09 12:45 | 50.63825 | 72.28717 | 13633 ft | 356 kts | 326° |
| 2026-05-09 12:45 | 50.66026 | 72.26947 | 13188 ft | 354 kts | 326° |
| 2026-05-09 12:46 | 50.68205 | 72.25194 | 12878 ft | 347 kts | 326° |
| 2026-05-09 12:46 | 50.70322 | 72.23495 | 12814 ft | 334 kts | 326° |
| 2026-05-09 12:46 | 50.72357 | 72.21859 | 12688 ft | 323 kts | 326° |
| 2026-05-09 12:46 | 50.74345 | 72.20255 | 12492 ft | 320 kts | 326° |
| 2026-05-09 12:47 | 50.76325 | 72.18649 | 12097 ft | 319 kts | 326° |
| 2026-05-09 12:47 | 50.78266 | 72.17075 | 11747 ft | 317 kts | 326° |
| 2026-05-09 12:47 | 50.80229 | 72.15484 | 11399 ft | 315 kts | 326° |
| 2026-05-09 12:47 | 50.82175 | 72.13904 | 11043 ft | 314 kts | 326° |
| 2026-05-09 12:48 | 50.84112 | 72.12331 | 10697 ft | 312 kts | 326° |
| 2026-05-09 12:48 | 50.86038 | 72.10767 | 10361 ft | 310 kts | 326° |
| 2026-05-09 12:48 | 50.87954 | 72.09210 | 10031 ft | 308 kts | 326° |
| 2026-05-09 12:48 | 50.89824 | 72.07693 | 9951 ft | 296 kts | 326° |
| 2026-05-09 12:49 | 50.91620 | 72.06240 | 9855 ft | 284 kts | 326° |
| 2026-05-09 12:49 | 50.93347 | 72.04836 | 9774 ft | 274 kts | 325° |
| 2026-05-09 12:49 | 50.95039 | 72.03450 | 9725 ft | 279 kts | 325° |
| 2026-05-09 12:49 | 50.96791 | 72.02005 | 9723 ft | 286 kts | 325° |
| 2026-05-09 12:50 | 50.98563 | 72.00553 | 9724 ft | 287 kts | 326° |
| 2026-05-09 12:50 | 51.00348 | 71.99095 | 9723 ft | 287 kts | 326° |
| 2026-05-09 12:50 | 51.02104 | 71.97664 | 9473 ft | 281 kts | 326° |
| 2026-05-09 12:50 | 51.03846 | 71.96237 | 8704 ft | 282 kts | 326° |
| 2026-05-09 12:51 | 51.05583 | 71.94811 | 8068 ft | 280 kts | 326° |
| 2026-05-09 12:51 | 51.07305 | 71.93397 | 7499 ft | 276 kts | 326° |
| 2026-05-09 12:51 | 51.09004 | 71.92003 | 7181 ft | 273 kts | 326° |
| 2026-05-09 12:51 | 51.10698 | 71.90609 | 6839 ft | 274 kts | 326° |
| 2026-05-09 12:52 | 51.12395 | 71.89213 | 6536 ft | 274 kts | 326° |
| 2026-05-09 12:52 | 51.14025 | 71.87673 | 6220 ft | 270 kts | 319° |
| 2026-05-09 12:52 | 51.15454 | 71.85782 | 5910 ft | 264 kts | 310° |
| 2026-05-09 12:52 | 51.16755 | 71.83731 | 5604 ft | 262 kts | 309° |
| 2026-05-09 12:53 | 51.18026 | 71.81674 | 5317 ft | 260 kts | 308° |
| 2026-05-09 12:53 | 51.19271 | 71.79625 | 5162 ft | 250 kts | 303° |
| 2026-05-09 12:53 | 51.19970 | 71.77271 | 5083 ft | 226 kts | 273° |
| 2026-05-09 12:53 | 51.19828 | 71.74873 | 4899 ft | 215 kts | 248° |
| 2026-05-09 12:54 | 51.19023 | 71.72890 | 4599 ft | 214 kts | 227° |
| 2026-05-09 12:54 | 51.17969 | 71.71231 | 4352 ft | 211 kts | 226° |
| 2026-05-09 12:54 | 51.16954 | 71.69638 | 4305 ft | 198 kts | 226° |
| 2026-05-09 12:54 | 51.15998 | 71.68132 | 4293 ft | 191 kts | 226° |
| 2026-05-09 12:55 | 51.15058 | 71.66659 | 4247 ft | 185 kts | 227° |
| 2026-05-09 12:55 | 51.14170 | 71.65264 | 4137 ft | 174 kts | 227° |
| 2026-05-09 12:55 | 51.13325 | 71.63935 | 3877 ft | 172 kts | 227° |
| 2026-05-09 12:55 | 51.12482 | 71.62608 | 3636 ft | 169 kts | 227° |
| 2026-05-09 12:56 | 51.11654 | 71.61311 | 3409 ft | 164 kts | 227° |
| 2026-05-09 12:56 | 51.10853 | 71.60054 | 3180 ft | 159 kts | 227° |
| 2026-05-09 12:56 | 51.10066 | 71.58817 | 2997 ft | 159 kts | 227° |
| 2026-05-09 12:56 | 51.09277 | 71.57577 | 2777 ft | 159 kts | 227° |
| 2026-05-09 12:57 | 51.08496 | 71.56348 | 2562 ft | 155 kts | 226° |
| 2026-05-09 12:57 | 51.07756 | 71.55192 | 2346 ft | 144 kts | 226° |
| 2026-05-09 12:57 | 51.07047 | 71.54088 | 2152 ft | 141 kts | 227° |
| 2026-05-09 12:57 | 51.06350 | 71.52993 | 2025 ft | 141 kts | 228° |
| 2026-05-09 12:58 | 51.05659 | 71.51885 | 1782 ft | 141 kts | 227° |
| 2026-05-09 12:58 | 51.04949 | 71.50796 | 1543 ft | 144 kts | 225° |
| 2026-05-09 12:58 | 51.04222 | 71.49706 | 1443 ft | 142 kts | 227° |
| 2026-05-09 12:58 | 51.03524 | 71.48602 | 1241 ft | 141 kts | 226° |
| 2026-05-09 12:59 | 51.02860 | 71.47553 | 1170 ft | 112 kts | 224° |
| 2026-05-09 12:59 | 51.02442 | 71.46908 | 1175 ft | 66 kts | 224° |
| 2026-05-09 12:59 | 51.02133 | 71.46427 | 1169 ft | 59 kts | 224° |
| 2026-05-09 12:59 | 51.01861 | 71.46000 | 1175 ft | 49 kts | 225° |
| 2026-05-09 13:00 | 51.01688 | 71.45730 | 1173 ft | 14 kts | 225° |
| 2026-05-09 13:00 | 51.01692 | 71.45669 | 1170 ft | 7 kts | 313° |
| 2026-05-09 13:00 | 51.01735 | 71.45595 | 1169 ft | 11 kts | 313° |
| 2026-05-09 13:00 | 51.01784 | 71.45511 | 1168 ft | 6 kts | 313° |
| 2026-05-09 13:01 | 51.01805 | 71.45495 | 1169 ft | 4 kts | 4° |
| 2026-05-09 13:01 | 51.01847 | 71.45523 | 1168 ft | 9 kts | 39° |
| 2026-05-09 13:01 | 51.01903 | 71.45607 | 1168 ft | 13 kts | 44° |
| 2026-05-09 13:01 | 51.01975 | 71.45717 | 1169 ft | 16 kts | 44° |
| 2026-05-09 13:02 | 51.02062 | 71.45854 | 1169 ft | 19 kts | 45° |
| 2026-05-09 13:02 | 51.02164 | 71.46017 | 1171 ft | 22 kts | 45° |
| 2026-05-09 13:02 | 51.02280 | 71.46197 | 1171 ft | 24 kts | 44° |
| 2026-05-09 13:02 | 51.02408 | 71.46394 | 1171 ft | 26 kts | 44° |
| 2026-05-09 13:03 | 51.02531 | 71.46583 | 1171 ft | 19 kts | 44° |
| 2026-05-09 13:03 | 51.02606 | 71.46697 | 1171 ft | 14 kts | 39° |
| 2026-05-09 13:03 | 51.02682 | 71.46668 | 1169 ft | 9 kts | 312° |
| 2026-05-09 13:03 | 51.02684 | 71.46664 | 1168 ft | 0 kts | 312° |
| 2026-05-09 13:04 | 51.02685 | 71.46664 | 1168 ft | 0 kts | 312° |
| 2026-05-09 13:04 | 51.02692 | 71.46651 | 1169 ft | 3 kts | 312° |
| 2026-05-09 13:04 | 51.02711 | 71.46627 | 1168 ft | 4 kts | 349° |
| 2026-05-09 13:05 | 51.02744 | 71.46644 | 1169 ft | 6 kts | 30° |
| 2026-05-09 13:05 | 51.02775 | 71.46640 | 1168 ft | 6 kts | 327° |
| 2026-05-09 13:05 | 51.02804 | 71.46599 | 1168 ft | 0 kts | 315° |
| 2026-05-09 13:05 | 51.02809 | 71.46591 | 1168 ft | 2 kts | 315° |
| 2026-05-09 13:06 | 51.02819 | 71.46575 | 1168 ft | 1 kts | 315° |
| 2026-05-09 13:06 | 51.02824 | 71.46567 | 1169 ft | 0 kts | 315° |
| 2026-05-09 13:06 | 51.02826 | 71.46565 | 1170 ft | 0 kts | 315° |